Time;durP1;ratioP1;P1;durP2;ratioP2;P2;SDS_P1;SDS_P2;PMS_P1;PMS_P2;Temp;Humidity;BMP_temperature;BMP_pressure;BME280_temperature;BME280_humidity;BME280_pressure;Samples;Min_cycle;Max_cycle;Signal;HPM_P1;HPM_P2
2023/02/27 00:01:20;;;;;;;9.45;4.47;;;;;;;-0.52;61.04;101631.63;10174933;28;20052;-76
2023/02/27 00:06:23;;;;;;;7.70;4.00;;;;;;;-0.56;61.38;101633.44;10181713;29;20048;-76
2023/02/27 00:11:26;;;;;;;4.82;3.38;;;;;;;-0.56;61.76;101635.19;10167467;29;20067;-76
2023/02/27 00:16:31;;;;;;;10.05;3.65;;;;;;;-0.62;61.69;101622.97;10152987;29;20045;-75
2023/02/27 00:21:34;;;;;;;5.07;2.83;;;;;;;-0.77;62.66;101629.34;10154061;29;20492;-76
2023/02/27 00:26:38;;;;;;;6.20;3.80;;;;;;;-0.89;63.45;101618.09;10150111;29;20103;-76
2023/02/27 00:31:42;;;;;;;5.90;3.20;;;;;;;-0.85;63.21;101617.13;10150900;29;20079;-76
2023/02/27 00:36:45;;;;;;;7.80;3.65;;;;;;;-0.79;63.20;101623.22;10147370;29;20140;-76
2023/02/27 00:41:48;;;;;;;9.02;3.72;;;;;;;-0.93;63.83;101633.09;10151654;29;20041;-76
2023/02/27 00:46:52;;;;;;;7.85;4.85;;;;;;;-0.95;63.61;101633.09;10152353;29;20083;-76
2023/02/27 00:51:55;;;;;;;8.10;3.75;;;;;;;-0.88;63.33;101631.22;10151432;29;20055;-76
2023/02/27 00:56:58;;;;;;;7.13;3.80;;;;;;;-0.87;63.25;101629.50;10152430;29;20040;-76
2023/02/27 01:02:02;;;;;;;7.20;4.03;;;;;;;-0.93;63.35;101635.72;10160285;29;20040;-76
2023/02/27 01:07:05;;;;;;;7.13;3.58;;;;;;;-0.92;63.27;101637.47;10159667;29;20043;-77
2023/02/27 01:12:08;;;;;;;7.90;3.58;;;;;;;-1.04;63.83;101634.97;10160389;29;20082;-76
2023/02/27 01:17:12;;;;;;;4.78;3.38;;;;;;;-1.05;64.01;101639.38;10156257;29;20040;-77
2023/02/27 01:22:15;;;;;;;12.63;4.35;;;;;;;-1.17;63.68;101639.53;10159300;29;20117;-77
2023/02/27 01:27:18;;;;;;;7.82;4.13;;;;;;;-1.08;63.53;101636.78;10155919;29;20051;-77
2023/02/27 01:32:22;;;;;;;11.57;3.58;;;;;;;-1.06;63.58;101627.09;10158658;29;20404;-77
2023/02/27 01:37:26;;;;;;;9.13;3.97;;;;;;;-1.04;63.57;101624.41;10155106;29;20511;-76
2023/02/27 01:42:29;;;;;;;6.88;3.47;;;;;;;-1.01;63.62;101624.41;10155809;29;20041;-75
2023/02/27 01:47:33;;;;;;;10.75;3.05;;;;;;;-1.02;63.28;101625.28;10155421;29;20093;-76
2023/02/27 01:52:38;;;;;;;6.75;3.58;;;;;;;-1.05;63.68;101623.56;10177686;28;20048;-74
2023/02/27 01:57:43;;;;;;;6.57;3.60;;;;;;;-1.02;63.69;101625.28;10208074;28;20047;-74
2023/02/27 02:02:56;;;;;;;9.60;3.33;;;;;;;-1.06;63.78;101626.22;10170567;29;20059;-76
2023/02/27 02:07:58;;;;;;;;;;;;;;;-1.12;63.52;101621.03;10172614;29;20072;-76
2023/02/27 02:13:02;;;;;;;4.88;3.55;;;;;;;-1.12;63.93;101619.28;10167731;29;19923;-76
2023/02/27 02:18:18;;;;;;;5.68;3.22;;;;;;;-1.14;63.74;101620.19;10158172;29;20048;-76
2023/02/27 02:23:46;;;;;;;11.85;4.20;;;;;;;-1.21;64.05;101625.53;10155730;29;20056;-76
2023/02/27 02:29:22;;;;;;;6.15;3.63;;;;;;;-1.26;64.11;101626.44;10151560;29;20055;-75
2023/02/27 02:35:14;;;;;;;13.80;3.70;;;;;;;-1.34;64.69;101629.22;10151306;29;20048;-76
2023/02/27 02:40:31;;;;;;;7.22;3.55;;;;;;;-1.35;64.47;101621.31;10158090;29;20096;-75
2023/02/27 02:45:43;;;;;;;9.77;3.83;;;;;;;-1.29;64.95;101616.84;10175265;29;20055;-76
2023/02/27 02:50:52;;;;;;;8.75;3.40;;;;;;;-1.31;64.82;101615.13;10170106;29;20112;-76
2023/02/27 02:56:04;;;;;;;9.60;3.47;;;;;;;-1.32;64.48;101618.63;10154951;29;20044;-76
2023/02/27 03:01:14;;;;;;;6.72;3.97;;;;;;;-1.40;64.64;101614.34;10152399;29;20040;-77
2023/02/27 03:06:22;;;;;;;4.95;3.65;;;;;;;-1.43;64.90;101613.47;10156715;29;20411;-77
2023/02/27 03:11:29;;;;;;;5.65;3.90;;;;;;;-1.40;64.93;101608.16;10153569;29;20060;-76
2023/02/27 03:16:39;;;;;;;6.78;3.45;;;;;;;-1.46;64.84;101617.03;10152774;29;20053;-76
2023/02/27 03:21:48;;;;;;;8.30;4.00;;;;;;;-1.47;64.86;101614.41;10148267;29;20048;-76
2023/02/27 03:26:58;;;;;;;6.15;3.70;;;;;;;-1.50;64.70;101612.69;10152836;29;20048;-76
2023/02/27 03:32:08;;;;;;;9.50;4.15;;;;;;;-1.51;65.34;101610.97;10151709;29;20060;-77
2023/02/27 03:37:25;;;;;;;7.90;4.30;;;;;;;-1.47;65.30;101614.41;10148679;29;20471;-77
2023/02/27 03:42:36;;;;;;;8.63;3.90;;;;;;;-1.50;64.72;101614.47;10150831;29;20047;-77
2023/02/27 03:47:39;;;;;;;6.90;3.65;;;;;;;-1.67;65.67;101628.69;10151992;29;20135;-76
2023/02/27 03:52:43;;;;;;;9.88;3.88;;;;;;;-1.83;66.41;101639.41;10153287;29;20059;-77
2023/02/27 03:57:50;;;;;;;9.15;3.90;;;;;;;-1.95;66.99;101645.63;10142320;29;20048;-77
2023/02/27 04:02:56;;;;;;;10.32;3.75;;;;;;;-1.96;66.98;101652.69;10155161;29;20048;-77
2023/02/27 04:08:32;;;;;;;6.22;4.10;;;;;;;-1.79;67.02;101660.41;10154241;29;20487;-77
2023/02/27 04:13:52;;;;;;;9.50;4.55;;;;;;;-1.66;66.95;101662.03;10155010;29;20110;-77
2023/02/27 04:19:07;;;;;;;5.38;3.47;;;;;;;-1.65;66.42;101670.81;10151816;29;20041;-76
2023/02/27 04:24:19;;;;;;;5.10;3.65;;;;;;;-2.01;66.75;101685.19;10149171;29;20044;-76
2023/02/27 04:29:33;;;;;;;7.50;3.67;;;;;;;-2.01;66.56;101680.81;10153006;29;20411;-76
2023/02/27 04:34:40;;;;;;;7.72;4.15;;;;;;;-1.83;66.87;101692.97;10161081;29;20068;-76
2023/02/27 04:39:50;;;;;;;9.20;4.25;;;;;;;-1.79;66.46;101683.25;10159829;29;20073;-77
2023/02/27 04:44:59;;;;;;;7.43;3.65;;;;;;;-1.66;66.60;101692.81;10149307;29;20084;-77
2023/02/27 04:50:07;;;;;;;8.52;4.38;;;;;;;-1.66;65.86;101682.25;10182151;29;20108;-76
2023/02/27 04:55:14;;;;;;;6.93;4.05;;;;;;;-1.66;65.86;101680.50;10186149;23;20051;-78
2023/02/27 05:00:22;;;;;;;5.97;3.80;;;;;;;-1.67;65.91;101683.16;10165914;29;20061;-78
2023/02/27 05:05:30;;;;;;;5.38;3.90;;;;;;;-1.74;65.59;101687.59;10166848;29;20051;-78
2023/02/27 05:10:39;;;;;;;8.77;4.00;;;;;;;-1.90;65.61;101693.88;10165361;29;20036;-78
2023/02/27 05:15:48;;;;;;;6.47;3.85;;;;;;;-1.85;65.55;101700.88;10155015;29;20056;-78
2023/02/27 05:20:57;;;;;;;7.35;4.03;;;;;;;-1.76;65.91;101705.16;10163757;29;20158;-77
2023/02/27 05:26:05;;;;;;;7.68;4.00;;;;;;;-1.75;65.77;101706.06;10166328;29;20049;-78
2023/02/27 05:31:15;;;;;;;11.65;4.25;;;;;;;-1.88;65.56;101716.69;10162359;29;20116;-78
2023/02/27 05:36:22;;;;;;;11.43;4.30;;;;;;;-2.12;66.03;101728.28;10159876;29;20051;-78
2023/02/27 05:41:28;;;;;;;5.40;4.57;;;;;;;-2.15;66.16;101719.53;10164192;29;20079;-78
2023/02/27 05:46:36;;;;;;;13.32;4.63;;;;;;;-2.12;66.26;101716.88;10162669;29;20455;-78
2023/02/27 05:51:41;;;;;;;5.57;4.57;;;;;;;-2.19;66.19;101716.06;10160638;29;20131;-77
2023/02/27 05:56:46;;;;;;;9.68;5.20;;;;;;;-2.19;66.10;101713.44;10160784;29;20169;-77
2023/02/27 06:01:50;;;;;;;7.93;4.95;;;;;;;-2.18;66.41;101715.16;10163608;29;20052;-77
2023/02/27 06:06:54;;;;;;;8.40;4.50;;;;;;;-2.29;66.71;101720.50;10162343;29;20139;-77
2023/02/27 06:11:57;;;;;;;9.18;5.30;;;;;;;-2.29;67.26;101720.50;10163188;29;20044;-77
2023/02/27 06:17:02;;;;;;;9.07;6.72;;;;;;;-2.16;67.55;101725.72;10159884;29;20420;-77
2023/02/27 06:22:05;;;;;;;11.55;6.50;;;;;;;-2.05;67.39;101730.91;10155825;29;20079;-77
2023/02/27 06:27:08;;;;;;;12.25;6.95;;;;;;;-2.05;67.05;101731.75;10159203;29;20133;-77
2023/02/27 06:32:12;;;;;;;11.05;7.53;;;;;;;-2.06;67.01;101737.91;10157455;29;20454;-77
2023/02/27 06:37:15;;;;;;;14.30;7.30;;;;;;;-1.86;67.04;101741.28;10164673;29;20116;-77
2023/02/27 06:42:18;;;;;;;16.92;6.68;;;;;;;-1.42;67.03;101747.91;10169629;29;20044;-78
2023/02/27 06:47:23;;;;;;;11.25;6.68;;;;;;;-1.14;65.93;101752.91;10150380;29;20077;-76
2023/02/27 06:52:27;;;;;;;12.88;8.82;;;;;;;-1.06;64.72;101751.06;10168827;29;20055;-79
2023/02/27 06:57:30;;;;;;;13.77;8.27;;;;;;;-1.16;64.76;101762.59;10150647;29;20515;-76
2023/02/27 07:02:34;;;;;;;13.95;8.82;;;;;;;-1.19;64.58;101763.50;10151819;29;20049;-77
2023/02/27 07:07:37;;;;;;;15.63;8.70;;;;;;;-0.57;64.65;101760.16;10155186;29;20055;-78
2023/02/27 07:12:41;;;;;;;11.93;7.35;;;;;;;-0.07;62.71;101766.50;10139128;29;20048;-78
2023/02/27 07:17:45;;;;;;;17.08;8.98;;;;;;;0.26;60.96;101764.25;10154728;29;20067;-80
2023/02/27 07:22:48;;;;;;;15.82;10.55;;;;;;;0.39;60.01;101768.44;10150195;29;20039;-79
2023/02/27 07:27:51;;;;;;;15.02;9.75;;;;;;;0.38;60.11;101782.53;10149617;29;20124;-78
2023/02/27 07:32:55;;;;;;;12.40;10.13;;;;;;;0.84;59.59;101774.69;10148410;29;20048;-78
2023/02/27 07:37:58;;;;;;;12.50;9.20;;;;;;;1.43;58.88;101786.81;10141110;29;20115;-78
2023/02/27 07:43:01;;;;;;;14.57;8.20;;;;;;;1.84;57.31;101780.59;10140319;29;20044;-77
2023/02/27 07:48:06;;;;;;;10.00;6.90;;;;;;;1.93;56.28;101784.81;10147791;29;20562;-76
2023/02/27 07:53:08;;;;;;;19.48;9.73;;;;;;;1.99;56.27;101789.97;10154972;29;20071;-76
2023/02/27 07:58:11;;;;;;;11.00;8.20;;;;;;;2.43;55.61;101797.78;10146925;29;20503;-77
2023/02/27 08:03:15;;;;;;;7.25;5.03;;;;;;;2.98;55.35;101796.41;10153570;29;20073;-77
2023/02/27 08:08:18;;;;;;;5.65;4.40;;;;;;;3.72;52.96;101795.19;10154401;29;20047;-77
2023/02/27 08:13:21;;;;;;;13.98;4.55;;;;;;;3.98;51.41;101794.41;10146136;29;20049;-78
2023/02/27 08:18:45;;;;;;;;;;;;;;;4.46;50.55;101791.06;10156522;29;20428;-77
2023/02/27 08:23:48;;;;;;;11.30;5.05;;;;;;;4.65;49.47;101785.13;10153333;29;19987;-77
2023/02/27 08:28:51;;;;;;;6.40;4.60;;;;;;;3.21;50.68;101790.44;10158674;29;20127;-77
2023/02/27 08:33:55;;;;;;;9.77;5.20;;;;;;;3.41;52.37;101796.06;10176317;29;20060;-77
2023/02/27 08:39:11;;;;;;;8.38;4.55;;;;;;;3.58;51.74;101795.59;10131411;29;20064;-76
2023/02/27 08:44:14;;;;;;;8.32;5.25;;;;;;;4.83;49.92;101788.03;10104001;29;20423;-77
2023/02/27 08:49:19;;;;;;;8.80;4.53;;;;;;;4.88;47.98;101787.84;10113087;29;20131;-76
2023/02/27 08:54:23;;;;;;;9.50;4.45;;;;;;;5.12;48.33;101790.63;10111711;29;20052;-76
2023/02/27 08:59:26;;;;;;;9.43;4.60;;;;;;;5.38;48.26;101790.53;10121926;29;20056;-78
2023/02/27 09:04:30;;;;;;;9.75;5.10;;;;;;;5.79;47.22;101792.56;10116540;29;20108;-75
2023/02/27 09:09:33;;;;;;;11.95;5.55;;;;;;;6.32;46.73;101795.78;10122574;29;20052;-77
2023/02/27 09:14:36;;;;;;;9.60;5.15;;;;;;;6.53;45.40;101791.34;10125754;29;20572;-76
2023/02/27 09:19:40;;;;;;;11.18;5.10;;;;;;;6.44;45.93;101791.72;10125577;29;20127;-77
2023/02/27 09:24:43;;;;;;;9.88;5.20;;;;;;;6.84;44.93;101790.91;10143860;29;20052;-77
2023/02/27 09:29:47;;;;;;;12.32;5.18;;;;;;;7.00;45.19;101800.97;10122589;29;20800;-76
2023/02/27 09:34:51;;;;;;;7.10;4.30;;;;;;;7.47;44.68;101790.84;10126987;29;20056;-77
2023/02/27 09:39:54;;;;;;;8.68;5.03;;;;;;;7.81;42.99;101802.63;10120264;29;20068;-78
2023/02/27 09:45:01;;;;;;;8.55;4.95;;;;;;;7.79;43.36;101815.25;10120501;29;20074;-77
2023/02/27 09:50:28;;;;;;;9.27;5.15;;;;;;;7.61;43.80;101813.41;10121959;29;20107;-76
2023/02/27 09:55:35;;;;;;;9.73;4.88;;;;;;;7.80;43.35;101818.78;10115233;29;20059;-77
2023/02/27 10:00:47;;;;;;;8.68;4.38;;;;;;;7.98;43.06;101809.00;10115286;29;20060;-77
2023/02/27 10:06:04;;;;;;;8.52;4.20;;;;;;;8.45;43.16;101790.63;10119152;29;20118;-77
2023/02/27 10:11:14;;;;;;;14.40;5.25;;;;;;;9.31;41.62;101783.53;10121869;29;20059;-75
2023/02/27 10:16:20;;;;;;;6.60;4.05;;;;;;;9.23;41.17;101777.72;10114143;29;20048;-75
2023/02/27 10:21:30;;;;;;;6.25;4.15;;;;;;;9.24;41.54;101792.84;10119358;29;20111;-74
2023/02/27 10:26:38;;;;;;;7.68;3.53;;;;;;;9.68;41.24;101784.22;10107121;29;20585;-77
2023/02/27 10:31:42;;;;;;;7.85;3.63;;;;;;;9.21;41.03;101779.59;10116692;29;20562;-77
2023/02/27 10:36:47;;;;;;;8.13;3.45;;;;;;;9.25;40.75;101776.69;10113197;29;20052;-76
2023/02/27 10:41:50;;;;;;;5.32;2.45;;;;;;;8.84;41.60;101777.06;10115029;29;20075;-76
2023/02/27 10:46:53;;;;;;;5.32;2.00;;;;;;;9.43;40.73;101773.97;10114756;29;20621;-76
2023/02/27 10:52:09;;;;;;;6.30;2.25;;;;;;;10.46;38.57;101765.53;10115387;29;20048;-77
2023/02/27 10:57:27;;;;;;;4.03;1.85;;;;;;;10.61;38.44;101778.03;10114795;29;20064;-78
2023/02/27 11:02:36;;;;;;;8.15;2.13;;;;;;;11.37;37.15;101753.72;10106603;29;20044;-78
2023/02/27 11:07:41;;;;;;;4.00;1.35;;;;;;;11.85;34.71;101753.41;10116294;29;20179;-78
2023/02/27 11:12:59;;;;;;;4.70;1.60;;;;;;;10.65;35.70;101751.88;10105224;29;20059;-76
2023/02/27 11:18:20;;;;;;;4.80;1.60;;;;;;;7.97;39.64;101754.63;10113263;29;20060;-77
2023/02/27 11:23:25;;;;;;;7.15;1.90;;;;;;;6.94;41.98;101754.03;10123437;29;20064;-77
2023/02/27 11:28:30;;;;;;;5.13;1.92;;;;;;;7.44;41.96;101763.38;10118193;29;20060;-76
2023/02/27 11:33:37;;;;;;;2.35;1.75;;;;;;;8.99;40.73;101745.03;10121680;29;20088;-76
2023/02/27 11:38:42;;;;;;;5.82;2.00;;;;;;;9.59;38.85;101745.34;10115642;29;20243;-77
2023/02/27 11:43:50;;;;;;;5.20;2.38;;;;;;;11.07;36.09;101732.25;10103817;29;20064;-77
2023/02/27 11:48:59;;;;;;;3.55;1.60;;;;;;;8.61;39.05;101745.22;10105927;29;20536;-78
2023/02/27 11:54:33;;;;;;;3.40;1.58;;;;;;;7.25;41.35;101742.81;10098229;29;20048;-77
2023/02/27 11:59:44;;;;;;;3.72;1.60;;;;;;;6.53;42.64;101748.63;10092091;29;20052;-76
2023/02/27 12:04:51;;;;;;;4.50;1.50;;;;;;;7.98;40.44;101747.44;10103338;29;20075;-77
2023/02/27 12:10:03;;;;;;;1.90;1.30;;;;;;;6.82;41.87;101743.84;10098907;29;20057;-76
2023/02/27 12:15:17;;;;;;;3.35;1.50;;;;;;;6.12;43.30;101763.72;10100689;29;20077;-77
2023/02/27 12:20:26;;;;;;;4.75;1.40;;;;;;;8.16;41.77;101746.56;10099700;29;20088;-77
2023/02/27 12:25:40;;;;;;;5.55;2.10;;;;;;;11.57;34.97;101733.59;10094194;29;20591;-79
2023/02/27 12:30:50;;;;;;;4.47;1.60;;;;;;;9.91;36.59;101738.22;10096807;29;20180;-78
2023/02/27 12:35:58;;;;;;;4.97;1.48;;;;;;;8.17;38.77;101734.91;10099423;29;20072;-78
2023/02/27 12:41:29;;;;;;;2.75;1.42;;;;;;;7.30;40.21;101736.41;10085888;29;20048;-77
2023/02/27 12:46:42;;;;;;;5.25;1.48;;;;;;;7.60;40.17;101736.78;10102659;29;20139;-79
2023/02/27 12:51:54;;;;;;;4.38;1.20;;;;;;;9.51;38.23;101739.53;10110593;29;20525;-77
2023/02/27 12:57:13;;;;;;;1.95;1.20;;;;;;;9.82;35.10;101732.44;10115984;29;20448;-78
2023/02/27 13:02:32;;;;;;;1.73;1.10;;;;;;;8.08;37.98;101738.03;10124563;29;20055;-77
2023/02/27 13:07:38;;;;;;;3.17;1.40;;;;;;;9.53;39.87;101737.66;10103148;29;20052;-77
2023/02/27 13:12:50;;;;;;;3.63;2.92;;;;;;;13.10;31.29;101737.78;10117546;29;20084;-77
2023/02/27 13:17:58;;;;;;;4.67;1.67;;;;;;;10.20;35.87;101743.72;10123972;29;20056;-77
2023/02/27 13:23:13;;;;;;;3.40;2.00;;;;;;;8.72;38.92;101737.50;10112852;29;20296;-75
2023/02/27 13:28:23;;;;;;;3.50;2.10;;;;;;;7.33;40.83;101733.59;10102718;29;20074;-77
2023/02/27 13:33:33;;;;;;;5.13;1.95;;;;;;;6.60;42.16;101730.53;10132580;29;20048;-76
2023/02/27 13:38:42;;;;;;;5.18;2.28;;;;;;;8.04;39.43;101720.41;10111578;29;20049;-76
2023/02/27 13:43:47;;;;;;;6.32;3.83;;;;;;;8.31;40.17;101710.09;10114889;29;20579;-76
2023/02/27 13:48:54;;;;;;;6.47;2.15;;;;;;;10.45;37.24;101707.34;10119755;29;20051;-76
2023/02/27 13:54:12;;;;;;;6.95;2.53;;;;;;;11.03;34.59;101711.91;10114986;29;20062;-75
2023/02/27 13:59:22;;;;;;;13.05;2.88;;;;;;;9.77;36.11;101716.63;10121531;29;20052;-76
2023/02/27 14:04:29;;;;;;;3.70;1.92;;;;;;;9.02;37.78;101707.34;10098584;29;20044;-77
2023/02/27 14:09:36;;;;;;;3.80;2.10;;;;;;;11.10;35.23;101701.63;10112490;29;20048;-77
2023/02/27 14:14:46;;;;;;;5.93;2.28;;;;;;;10.44;35.53;101708.31;10134329;29;20540;-77
2023/02/27 14:19:58;;;;;;;3.90;2.13;;;;;;;9.66;36.00;101719.06;10124174;29;20052;-77
2023/02/27 14:25:05;;;;;;;3.60;2.17;;;;;;;8.99;37.64;101716.41;10114957;29;20043;-76
2023/02/27 14:30:26;;;;;;;6.90;2.13;;;;;;;10.57;35.70;101699.44;10117900;29;20426;-77
2023/02/27 14:35:30;;;;;;;3.83;2.22;;;;;;;10.75;33.89;101696.59;10120640;29;20052;-76
2023/02/27 14:40:40;;;;;;;3.67;2.13;;;;;;;10.71;34.27;101703.13;10128970;29;20616;-76
2023/02/27 14:45:44;;;;;;;5.78;2.47;;;;;;;11.36;34.18;101708.94;10124601;29;20507;-77
2023/02/27 14:50:52;;;;;;;2.38;1.80;;;;;;;10.73;33.78;101714.66;10125309;29;20060;-77
2023/02/27 14:55:57;;;;;;;3.47;2.10;;;;;;;10.99;34.89;101713.03;10119191;29;20051;-76
2023/02/27 15:01:05;;;;;;;3.08;1.90;;;;;;;10.55;34.82;101714.78;10123155;29;20052;-76
2023/02/27 15:06:17;;;;;;;2.75;1.83;;;;;;;10.15;34.93;101722.53;10125028;29;20052;-76
2023/02/27 15:11:22;;;;;;;3.43;1.60;;;;;;;8.73;36.98;101724.97;10123456;29;20048;-77
2023/02/27 15:16:36;;;;;;;4.35;1.95;;;;;;;7.75;39.02;101736.06;10110315;29;20139;-78
2023/02/27 15:21:42;;;;;;;6.78;2.15;;;;;;;8.51;37.84;101733.25;10118706;29;20791;-78
2023/02/27 15:26:47;;;;;;;6.35;1.90;;;;;;;8.93;37.14;101732.81;10119396;29;20070;-78
2023/02/27 15:31:52;;;;;;;4.07;1.50;;;;;;;9.01;36.92;101729.75;10106613;29;20436;-77
2023/02/27 15:36:57;;;;;;;2.00;1.35;;;;;;;9.34;36.58;101729.75;10109392;29;20713;-75
2023/02/27 15:42:02;;;;;;;2.63;1.65;;;;;;;9.19;36.67;101727.91;10115923;29;20074;-78
2023/02/27 15:47:10;;;;;;;4.25;1.80;;;;;;;9.15;36.60;101740.59;10111826;29;20056;-76
2023/02/27 15:52:18;;;;;;;5.40;1.65;;;;;;;8.34;37.94;101742.13;10120573;29;20056;-76
2023/02/27 15:57:22;;;;;;;4.30;1.65;;;;;;;7.80;39.05;101738.50;10112557;29;20056;-75
2023/02/27 16:02:31;;;;;;;3.28;1.85;;;;;;;6.98;40.55;101736.91;10112665;29;20546;-76
2023/02/27 16:07:40;;;;;;;3.58;1.73;;;;;;;6.57;41.10;101738.69;10120062;29;20067;-76
2023/02/27 16:12:43;;;;;;;2.95;1.52;;;;;;;5.93;41.28;101747.56;10101892;29;20447;-75
2023/02/27 16:17:55;;;;;;;2.85;1.52;;;;;;;5.86;41.48;101752.25;10109394;29;20171;-76
2023/02/27 16:23:01;;;;;;;1.92;1.60;;;;;;;5.87;42.06;101747.78;10118230;29;20055;-75
2023/02/27 16:28:04;;;;;;;3.33;1.45;;;;;;;5.93;42.63;101752.91;10115976;29;20049;-75
2023/02/27 16:33:22;;;;;;;3.85;1.77;;;;;;;6.25;42.02;101756.91;10119150;29;20071;-76
2023/02/27 16:38:25;;;;;;;7.05;2.85;;;;;;;6.07;42.23;101761.22;10114293;29;20474;-76
2023/02/27 16:43:27;;;;;;;3.33;1.65;;;;;;;5.44;43.64;101771.66;10107008;29;20056;-75
2023/02/27 16:48:32;;;;;;;3.63;1.90;;;;;;;5.09;44.51;101764.97;10112043;29;20052;-75
2023/02/27 16:53:34;;;;;;;2.40;1.88;;;;;;;4.86;45.14;101770.22;10115574;29;21221;-75
2023/02/27 16:58:37;;;;;;;5.47;2.85;;;;;;;4.74;45.76;101774.16;10111144;29;20044;-75
2023/02/27 17:03:43;;;;;;;6.30;2.53;;;;;;;4.70;46.29;101769.88;10112731;29;20049;-76
2023/02/27 17:08:45;;;;;;;3.22;2.20;;;;;;;4.64;46.76;101773.63;10112216;29;20072;-76
2023/02/27 17:13:48;;;;;;;3.92;2.45;;;;;;;4.60;47.04;101786.13;10112391;29;20416;-76
2023/02/27 17:18:52;;;;;;;5.72;2.47;;;;;;;4.53;47.27;101794.41;10103874;29;21327;-75
2023/02/27 17:23:55;;;;;;;4.55;2.67;;;;;;;4.33;47.94;101795.03;10105583;29;20597;-76
2023/02/27 17:28:58;;;;;;;6.40;3.00;;;;;;;4.23;48.16;101798.94;10112151;29;20083;-76
2023/02/27 17:34:04;;;;;;;10.50;3.45;;;;;;;4.10;48.82;101801.09;10109573;29;20419;-77
2023/02/27 17:39:07;;;;;;;6.03;4.15;;;;;;;4.08;48.92;101805.59;10116264;29;20545;-75
2023/02/27 17:44:11;;;;;;;5.07;2.60;;;;;;;4.06;49.04;101802.09;10123096;29;20103;-76
2023/02/27 17:49:15;;;;;;;5.18;2.80;;;;;;;3.97;49.22;101815.69;10125580;29;20172;-76
2023/02/27 17:54:18;;;;;;;6.47;2.75;;;;;;;3.88;49.49;101809.75;10125338;29;20534;-75
2023/02/27 17:59:21;;;;;;;5.57;3.03;;;;;;;3.79;49.79;101819.81;10121351;29;20066;-76
2023/02/27 18:04:25;;;;;;;7.45;4.03;;;;;;;3.59;50.23;101815.06;10121228;29;20071;-75
2023/02/27 18:09:28;;;;;;;9.23;4.07;;;;;;;3.44;50.48;101811.06;10117048;29;20044;-76
2023/02/27 18:14:31;;;;;;;6.40;4.53;;;;;;;3.35;50.80;101811.34;10125624;29;20080;-77
2023/02/27 18:19:38;;;;;;;11.20;4.93;;;;;;;3.21;51.05;101814.34;10114983;29;20052;-75
2023/02/27 18:24:42;;;;;;;9.63;4.07;;;;;;;3.14;51.37;101816.31;10112209;29;20427;-77
2023/02/27 18:29:45;;;;;;;6.15;3.15;;;;;;;3.06;51.40;101815.66;10126118;29;20087;-77
2023/02/27 18:34:49;;;;;;;6.65;3.30;;;;;;;3.01;51.56;101820.19;10121582;29;20192;-78
2023/02/27 18:39:52;;;;;;;7.40;3.17;;;;;;;2.89;51.75;101820.53;10127120;29;20186;-77
2023/02/27 18:44:55;;;;;;;6.80;2.97;;;;;;;2.88;52.05;101822.34;10124981;29;20057;-76
2023/02/27 18:49:59;;;;;;;6.30;3.13;;;;;;;2.94;51.86;101834.56;10128368;29;20048;-77
2023/02/27 18:55:02;;;;;;;4.20;2.47;;;;;;;2.90;52.01;101828.44;10124186;29;21412;-77
2023/02/27 19:00:06;;;;;;;5.38;3.05;;;;;;;2.82;52.39;101833.09;10121306;29;20471;-77
2023/02/27 19:05:13;;;;;;;5.40;3.00;;;;;;;2.83;52.32;101835.72;10123199;29;20068;-76
2023/02/27 19:10:16;;;;;;;12.00;3.42;;;;;;;2.86;52.39;101842.72;10123160;29;20195;-76
2023/02/27 19:15:19;;;;;;;6.53;3.38;;;;;;;2.85;52.46;101846.28;10131023;29;20087;-75
2023/02/27 19:20:23;;;;;;;6.90;3.63;;;;;;;2.86;52.45;101839.22;10126538;29;20052;-76
2023/02/27 19:25:26;;;;;;;8.57;3.60;;;;;;;2.93;52.71;101844.28;10127354;29;20059;-76
2023/02/27 19:30:29;;;;;;;7.07;4.05;;;;;;;2.98;52.50;101837.09;10123846;29;20185;-77
2023/02/27 19:35:33;;;;;;;7.70;4.47;;;;;;;2.93;52.36;101833.66;10082478;28;20412;-76
2023/02/27 19:40:36;;;;;;;13.88;4.72;;;;;;;2.81;52.45;101840.19;10117754;29;20059;-75
2023/02/27 19:45:40;;;;;;;10.50;4.82;;;;;;;2.66;52.81;101843.25;10120651;29;20059;-76
2023/02/27 19:50:44;;;;;;;10.25;5.10;;;;;;;2.61;53.24;101850.44;10122008;29;20160;-75
2023/02/27 19:55:56;;;;;;;10.13;5.38;;;;;;;2.53;53.27;101849.72;10128828;29;20535;-75
2023/02/27 20:00:59;;;;;;;13.85;5.97;;;;;;;2.43;53.52;101856.16;10118227;29;20059;-77
2023/02/27 20:06:05;;;;;;;11.57;5.35;;;;;;;2.41;53.82;101853.50;10124525;29;20447;-76
2023/02/27 20:11:08;;;;;;;17.73;7.53;;;;;;;2.44;54.22;101848.16;10119848;29;20512;-77
2023/02/27 20:16:13;;;;;;;21.65;8.40;;;;;;;2.34;54.06;101851.94;10117664;29;20116;-76
2023/02/27 20:21:20;;;;;;;36.13;12.20;;;;;;;2.24;54.15;101851.25;10113641;29;20059;-75
2023/02/27 20:26:26;;;;;;;30.02;12.00;;;;;;;2.14;54.76;101853.25;10127828;29;20543;-75
2023/02/27 20:31:31;;;;;;;26.58;10.43;;;;;;;2.06;54.85;101854.34;10124640;29;20048;-75
2023/02/27 20:36:37;;;;;;;26.15;9.10;;;;;;;2.08;54.67;101858.69;10123204;29;20052;-77
2023/02/27 20:41:40;;;;;;;23.27;8.85;;;;;;;2.08;54.90;101855.16;10112168;29;20057;-76
2023/02/27 20:46:43;;;;;;;25.80;10.07;;;;;;;2.05;55.23;101855.22;10117773;29;20048;-76
2023/02/27 20:51:48;;;;;;;27.30;9.23;;;;;;;1.97;55.24;101852.75;10123701;29;20780;-76
2023/02/27 20:56:53;;;;;;;20.67;9.40;;;;;;;1.92;55.64;101863.47;10118192;29;20518;-77
2023/02/27 21:01:56;;;;;;;20.30;9.63;;;;;;;1.91;55.70;101869.66;10113536;29;20523;-77
2023/02/27 21:07:00;;;;;;;18.40;8.40;;;;;;;1.79;55.53;101869.94;10124520;29;20060;-76
2023/02/27 21:12:02;;;;;;;17.63;8.38;;;;;;;1.84;56.01;101869.84;10123964;29;20052;-76
2023/02/27 21:17:06;;;;;;;19.63;9.65;;;;;;;1.78;56.43;101870.81;10130932;29;20059;-75
2023/02/27 21:22:10;;;;;;;20.25;8.57;;;;;;;1.76;56.54;101867.34;10122298;29;20128;-76
2023/02/27 21:27:13;;;;;;;11.60;6.70;;;;;;;1.67;56.15;101872.81;10121806;29;20650;-75
2023/02/27 21:32:17;;;;;;;15.27;7.60;;;;;;;1.56;56.42;101880.97;10132772;29;20041;-76
2023/02/27 21:37:21;;;;;;;15.63;6.72;;;;;;;1.49;57.25;101888.19;10121954;29;20075;-77
2023/02/27 21:42:24;;;;;;;13.48;6.90;;;;;;;1.45;56.96;101880.31;10128472;29;20106;-76
2023/02/27 21:47:28;;;;;;;13.38;7.00;;;;;;;1.42;57.19;101883.88;10122134;29;20052;-76
2023/02/27 21:52:33;;;;;;;14.52;6.90;;;;;;;1.34;57.26;101885.81;10126112;29;20063;-76
2023/02/27 21:57:37;;;;;;;12.95;6.95;;;;;;;1.23;57.55;101880.69;10127568;29;20054;-76
2023/02/27 22:02:40;;;;;;;16.77;8.77;;;;;;;1.21;58.20;101894.91;10118503;29;20048;-75
2023/02/27 22:07:44;;;;;;;13.95;8.52;;;;;;;1.20;58.09;101893.13;10118248;29;20048;-76
2023/02/27 22:12:47;;;;;;;16.70;8.18;;;;;;;1.08;58.31;101903.97;10126412;29;20071;-76
2023/02/27 22:17:51;;;;;;;17.40;8.93;;;;;;;0.87;58.83;101892.81;10122606;29;20504;-76
2023/02/27 22:22:55;;;;;;;21.45;10.27;;;;;;;0.78;59.04;101891.19;10134076;29;20042;-77
2023/02/27 22:27:58;;;;;;;18.48;9.80;;;;;;;0.79;59.24;101892.06;10184287;23;20482;-79
2023/02/27 22:33:01;;;;;;;18.23;8.98;;;;;;;0.73;59.46;101900.09;10176507;29;20482;-75
2023/02/27 22:38:05;;;;;;;14.80;7.88;;;;;;;0.68;59.36;101901.94;10175284;29;20047;-77
2023/02/27 22:43:10;;;;;;;12.82;7.10;;;;;;;0.68;59.83;101896.66;10174125;29;20056;-77
2023/02/27 22:48:12;;;;;;;15.98;7.65;;;;;;;0.64;59.72;101898.50;10175249;29;20048;-76
2023/02/27 22:53:16;;;;;;;15.48;7.35;;;;;;;0.62;59.71;101892.34;10176458;29;20574;-75
2023/02/27 22:58:19;;;;;;;12.80;7.32;;;;;;;0.65;59.90;101897.56;10170270;29;20115;-76
2023/02/27 23:03:22;;;;;;;12.85;6.95;;;;;;;0.55;60.02;101902.16;10171562;29;20407;-75
2023/02/27 23:08:26;;;;;;;11.10;6.97;;;;;;;0.54;60.22;101899.53;10174532;29;20108;-76
2023/02/27 23:13:30;;;;;;;16.02;7.35;;;;;;;0.47;60.06;101904.03;10171982;29;20064;-77
2023/02/27 23:18:33;;;;;;;12.35;6.70;;;;;;;0.50;60.07;101911.94;10171835;29;20123;-75
2023/02/27 23:23:38;;;;;;;12.02;6.53;;;;;;;0.46;60.27;101907.56;10172749;29;20115;-76
2023/02/27 23:28:41;;;;;;;9.27;5.88;;;;;;;0.35;59.72;101906.84;10163344;29;20063;-81
2023/02/27 23:33:44;;;;;;;11.70;4.97;;;;;;;0.31;59.86;101911.31;10171954;29;20467;-76